sensor_id;sensor_type;location;lat;lon;timestamp;P1;durP1;ratioP1;P2;durP2;ratioP2
59169;SDS011;52474;52.236;5.114;2023-11-21T00:00:13;137.68;;;21.50;;
59169;SDS011;52474;52.236;5.114;2023-11-21T00:02:40;121.25;;;19.40;;
59169;SDS011;52474;52.236;5.114;2023-11-21T00:05:09;126.28;;;19.33;;
59169;SDS011;52474;52.236;5.114;2023-11-21T00:07:37;89.80;;;19.45;;
59169;SDS011;52474;52.236;5.114;2023-11-21T00:10:04;64.32;;;18.08;;
59169;SDS011;52474;52.236;5.114;2023-11-21T00:12:31;51.55;;;17.52;;
59169;SDS011;52474;52.236;5.114;2023-11-21T00:14:57;76.95;;;18.15;;
59169;SDS011;52474;52.236;5.114;2023-11-21T00:17:23;193.20;;;24.35;;
59169;SDS011;52474;52.236;5.114;2023-11-21T00:19:49;183.32;;;18.55;;
59169;SDS011;52474;52.236;5.114;2023-11-21T00:22:17;358.90;;;26.65;;
59169;SDS011;52474;52.236;5.114;2023-11-21T00:24:43;239.93;;;24.27;;
59169;SDS011;52474;52.236;5.114;2023-11-21T00:27:09;200.60;;;21.73;;
59169;SDS011;52474;52.236;5.114;2023-11-21T00:29:35;176.27;;;19.27;;
59169;SDS011;52474;52.236;5.114;2023-11-21T00:32:00;183.15;;;21.98;;
59169;SDS011;52474;52.236;5.114;2023-11-21T00:34:26;183.63;;;21.85;;
59169;SDS011;52474;52.236;5.114;2023-11-21T00:36:53;144.43;;;22.45;;
59169;SDS011;52474;52.236;5.114;2023-11-21T00:39:20;110.13;;;19.35;;
59169;SDS011;52474;52.236;5.114;2023-11-21T00:41:45;79.93;;;18.48;;
59169;SDS011;52474;52.236;5.114;2023-11-21T00:44:11;81.25;;;19.52;;
59169;SDS011;52474;52.236;5.114;2023-11-21T00:46:36;45.03;;;15.35;;
59169;SDS011;52474;52.236;5.114;2023-11-21T00:49:02;43.72;;;16.08;;
59169;SDS011;52474;52.236;5.114;2023-11-21T00:51:31;35.05;;;14.30;;
59169;SDS011;52474;52.236;5.114;2023-11-21T00:53:56;30.63;;;14.38;;
59169;SDS011;52474;52.236;5.114;2023-11-21T00:56:22;27.60;;;13.23;;
59169;SDS011;52474;52.236;5.114;2023-11-21T00:58:49;29.77;;;14.75;;
59169;SDS011;52474;52.236;5.114;2023-11-21T01:01:18;37.22;;;15.75;;
59169;SDS011;52474;52.236;5.114;2023-11-21T01:03:47;36.38;;;16.80;;
59169;SDS011;52474;52.236;5.114;2023-11-21T01:06:13;36.40;;;16.80;;
59169;SDS011;52474;52.236;5.114;2023-11-21T01:08:38;36.33;;;15.57;;
59169;SDS011;52474;52.236;5.114;2023-11-21T01:11:04;37.50;;;15.68;;
59169;SDS011;52474;52.236;5.114;2023-11-21T01:13:32;35.35;;;16.58;;
59169;SDS011;52474;52.236;5.114;2023-11-21T01:15:58;39.03;;;16.38;;
59169;SDS011;52474;52.236;5.114;2023-11-21T01:18:24;42.40;;;16.58;;
59169;SDS011;52474;52.236;5.114;2023-11-21T01:20:51;44.53;;;17.13;;
59169;SDS011;52474;52.236;5.114;2023-11-21T01:23:19;40.03;;;16.85;;
59169;SDS011;52474;52.236;5.114;2023-11-21T01:25:44;48.17;;;17.65;;
59169;SDS011;52474;52.236;5.114;2023-11-21T01:28:10;47.88;;;17.42;;
59169;SDS011;52474;52.236;5.114;2023-11-21T01:30:36;48.05;;;18.48;;
59169;SDS011;52474;52.236;5.114;2023-11-21T01:33:02;42.67;;;17.05;;
59169;SDS011;52474;52.236;5.114;2023-11-21T01:35:30;49.30;;;18.52;;
59169;SDS011;52474;52.236;5.114;2023-11-21T01:37:55;57.13;;;19.58;;
59169;SDS011;52474;52.236;5.114;2023-11-21T01:40:21;53.10;;;18.45;;
59169;SDS011;52474;52.236;5.114;2023-11-21T01:42:47;42.50;;;17.83;;
59169;SDS011;52474;52.236;5.114;2023-11-21T01:45:13;48.35;;;18.42;;
59169;SDS011;52474;52.236;5.114;2023-11-21T01:47:40;46.60;;;17.63;;
59169;SDS011;52474;52.236;5.114;2023-11-21T01:50:07;52.97;;;21.13;;
59169;SDS011;52474;52.236;5.114;2023-11-21T01:52:37;55.80;;;20.38;;
59169;SDS011;52474;52.236;5.114;2023-11-21T01:55:05;49.63;;;20.10;;
59169;SDS011;52474;52.236;5.114;2023-11-21T01:57:33;47.03;;;18.63;;
59169;SDS011;52474;52.236;5.114;2023-11-21T02:00:03;49.30;;;19.10;;
59169;SDS011;52474;52.236;5.114;2023-11-21T02:02:47;45.47;;;18.13;;
59169;SDS011;52474;52.236;5.114;2023-11-21T02:05:17;50.08;;;18.35;;
59169;SDS011;52474;52.236;5.114;2023-11-21T02:07:44;36.53;;;16.13;;
59169;SDS011;52474;52.236;5.114;2023-11-21T02:10:13;48.50;;;18.00;;
59169;SDS011;52474;52.236;5.114;2023-11-21T02:12:40;46.67;;;16.92;;
59169;SDS011;52474;52.236;5.114;2023-11-21T02:15:08;39.85;;;16.73;;
59169;SDS011;52474;52.236;5.114;2023-11-21T02:17:41;41.25;;;17.38;;
59169;SDS011;52474;52.236;5.114;2023-11-21T02:20:10;42.92;;;17.17;;
59169;SDS011;52474;52.236;5.114;2023-11-21T02:22:42;43.40;;;17.10;;
59169;SDS011;52474;52.236;5.114;2023-11-21T02:25:08;40.65;;;18.13;;
59169;SDS011;52474;52.236;5.114;2023-11-21T02:27:34;38.38;;;18.48;;
59169;SDS011;52474;52.236;5.114;2023-11-21T02:30:00;46.97;;;18.23;;
59169;SDS011;52474;52.236;5.114;2023-11-21T02:32:26;45.83;;;18.23;;
59169;SDS011;52474;52.236;5.114;2023-11-21T02:34:52;43.58;;;17.55;;
59169;SDS011;52474;52.236;5.114;2023-11-21T02:37:21;46.92;;;17.92;;
59169;SDS011;52474;52.236;5.114;2023-11-21T02:39:46;41.17;;;16.00;;
59169;SDS011;52474;52.236;5.114;2023-11-21T02:42:12;43.58;;;16.98;;
59169;SDS011;52474;52.236;5.114;2023-11-21T02:44:38;44.15;;;18.58;;
59169;SDS011;52474;52.236;5.114;2023-11-21T02:47:03;42.60;;;16.35;;
59169;SDS011;52474;52.236;5.114;2023-11-21T02:49:29;40.83;;;16.13;;
59169;SDS011;52474;52.236;5.114;2023-11-21T02:51:56;42.22;;;15.52;;
59169;SDS011;52474;52.236;5.114;2023-11-21T02:54:21;40.95;;;14.75;;
59169;SDS011;52474;52.236;5.114;2023-11-21T02:56:47;34.85;;;15.50;;
59169;SDS011;52474;52.236;5.114;2023-11-21T02:59:15;41.78;;;16.25;;
59169;SDS011;52474;52.236;5.114;2023-11-21T03:01:41;43.33;;;16.83;;
59169;SDS011;52474;52.236;5.114;2023-11-21T03:04:07;31.95;;;14.32;;
59169;SDS011;52474;52.236;5.114;2023-11-21T03:06:33;33.72;;;15.48;;
59169;SDS011;52474;52.236;5.114;2023-11-21T03:08:59;32.22;;;15.18;;
59169;SDS011;52474;52.236;5.114;2023-11-21T03:11:25;33.08;;;14.52;;
59169;SDS011;52474;52.236;5.114;2023-11-21T03:13:51;39.97;;;14.85;;
59169;SDS011;52474;52.236;5.114;2023-11-21T03:16:17;34.92;;;14.68;;
59169;SDS011;52474;52.236;5.114;2023-11-21T03:18:45;40.38;;;16.02;;
59169;SDS011;52474;52.236;5.114;2023-11-21T03:21:11;34.45;;;14.52;;
59169;SDS011;52474;52.236;5.114;2023-11-21T03:23:37;34.70;;;14.30;;
59169;SDS011;52474;52.236;5.114;2023-11-21T03:26:03;39.03;;;15.07;;
59169;SDS011;52474;52.236;5.114;2023-11-21T03:28:29;36.35;;;13.98;;
59169;SDS011;52474;52.236;5.114;2023-11-21T03:30:56;33.65;;;13.65;;
59169;SDS011;52474;52.236;5.114;2023-11-21T03:33:23;33.38;;;14.07;;
59169;SDS011;52474;52.236;5.114;2023-11-21T03:35:49;35.17;;;14.40;;
59169;SDS011;52474;52.236;5.114;2023-11-21T03:38:14;35.03;;;14.57;;
59169;SDS011;52474;52.236;5.114;2023-11-21T03:40:41;36.85;;;14.02;;
59169;SDS011;52474;52.236;5.114;2023-11-21T03:43:07;31.75;;;13.23;;
59169;SDS011;52474;52.236;5.114;2023-11-21T03:45:33;37.33;;;13.80;;
59169;SDS011;52474;52.236;5.114;2023-11-21T03:47:58;30.80;;;13.65;;
59169;SDS011;52474;52.236;5.114;2023-11-21T03:50:31;29.00;;;12.57;;
59169;SDS011;52474;52.236;5.114;2023-11-21T03:52:57;30.77;;;13.10;;
59169;SDS011;52474;52.236;5.114;2023-11-21T03:55:22;29.70;;;13.52;;
59169;SDS011;52474;52.236;5.114;2023-11-21T03:57:51;31.65;;;13.57;;
59169;SDS011;52474;52.236;5.114;2023-11-21T04:00:18;31.90;;;12.93;;
59169;SDS011;52474;52.236;5.114;2023-11-21T04:02:45;34.25;;;13.52;;
59169;SDS011;52474;52.236;5.114;2023-11-21T04:05:11;27.83;;;12.93;;
59169;SDS011;52474;52.236;5.114;2023-11-21T04:07:37;33.40;;;13.50;;
59169;SDS011;52474;52.236;5.114;2023-11-21T04:10:04;30.65;;;13.45;;
59169;SDS011;52474;52.236;5.114;2023-11-21T04:14:59;40.20;;;12.55;;
59169;SDS011;52474;52.236;5.114;2023-11-21T04:17:24;31.48;;;13.18;;
59169;SDS011;52474;52.236;5.114;2023-11-21T04:19:50;34.67;;;13.23;;
59169;SDS011;52474;52.236;5.114;2023-11-21T04:22:15;32.10;;;13.52;;
59169;SDS011;52474;52.236;5.114;2023-11-21T04:24:41;32.63;;;13.48;;
59169;SDS011;52474;52.236;5.114;2023-11-21T04:27:07;35.83;;;14.25;;
59169;SDS011;52474;52.236;5.114;2023-11-21T04:29:33;36.88;;;13.82;;
59169;SDS011;52474;52.236;5.114;2023-11-21T04:31:58;33.17;;;14.02;;
59169;SDS011;52474;52.236;5.114;2023-11-21T04:34:24;39.42;;;14.38;;
59169;SDS011;52474;52.236;5.114;2023-11-21T04:36:50;35.33;;;13.98;;
59169;SDS011;52474;52.236;5.114;2023-11-21T04:39:16;38.88;;;15.10;;
59169;SDS011;52474;52.236;5.114;2023-11-21T04:41:41;36.83;;;15.02;;
59169;SDS011;52474;52.236;5.114;2023-11-21T04:44:08;25.98;;;12.70;;
59169;SDS011;52474;52.236;5.114;2023-11-21T04:46:33;37.20;;;13.00;;
59169;SDS011;52474;52.236;5.114;2023-11-21T04:48:59;38.05;;;14.23;;
59169;SDS011;52474;52.236;5.114;2023-11-21T04:51:25;30.85;;;12.98;;
59169;SDS011;52474;52.236;5.114;2023-11-21T04:53:50;39.30;;;13.95;;
59169;SDS011;52474;52.236;5.114;2023-11-21T04:56:16;45.72;;;15.95;;
59169;SDS011;52474;52.236;5.114;2023-11-21T04:58:42;36.00;;;14.38;;
59169;SDS011;52474;52.236;5.114;2023-11-21T05:01:07;35.00;;;13.82;;
59169;SDS011;52474;52.236;5.114;2023-11-21T05:03:33;39.72;;;14.02;;
59169;SDS011;52474;52.236;5.114;2023-11-21T05:05:59;47.97;;;16.35;;
59169;SDS011;52474;52.236;5.114;2023-11-21T05:08:25;40.08;;;14.57;;
59169;SDS011;52474;52.236;5.114;2023-11-21T05:10:52;34.33;;;14.52;;
59169;SDS011;52474;52.236;5.114;2023-11-21T05:13:19;42.55;;;16.40;;
59169;SDS011;52474;52.236;5.114;2023-11-21T05:15:45;46.38;;;17.10;;
59169;SDS011;52474;52.236;5.114;2023-11-21T05:18:11;42.38;;;16.25;;
59169;SDS011;52474;52.236;5.114;2023-11-21T05:20:39;40.85;;;15.75;;
59169;SDS011;52474;52.236;5.114;2023-11-21T05:23:06;50.58;;;16.73;;
59169;SDS011;52474;52.236;5.114;2023-11-21T05:25:33;38.67;;;15.88;;
59169;SDS011;52474;52.236;5.114;2023-11-21T05:27:59;46.42;;;16.52;;
59169;SDS011;52474;52.236;5.114;2023-11-21T05:30:26;47.75;;;17.25;;
59169;SDS011;52474;52.236;5.114;2023-11-21T05:32:53;41.17;;;16.67;;
59169;SDS011;52474;52.236;5.114;2023-11-21T05:35:18;64.18;;;19.20;;
59169;SDS011;52474;52.236;5.114;2023-11-21T05:37:45;57.25;;;17.73;;
59169;SDS011;52474;52.236;5.114;2023-11-21T05:40:11;54.35;;;17.30;;
59169;SDS011;52474;52.236;5.114;2023-11-21T05:42:38;49.10;;;17.50;;
59169;SDS011;52474;52.236;5.114;2023-11-21T05:45:06;45.55;;;16.65;;
59169;SDS011;52474;52.236;5.114;2023-11-21T05:47:43;53.47;;;17.00;;
59169;SDS011;52474;52.236;5.114;2023-11-21T05:50:11;44.78;;;16.65;;
59169;SDS011;52474;52.236;5.114;2023-11-21T05:52:45;52.58;;;17.60;;
59169;SDS011;52474;52.236;5.114;2023-11-21T05:55:12;49.75;;;16.17;;
59169;SDS011;52474;52.236;5.114;2023-11-21T05:57:42;48.47;;;16.58;;
59169;SDS011;52474;52.236;5.114;2023-11-21T06:00:09;47.20;;;16.08;;
59169;SDS011;52474;52.236;5.114;2023-11-21T06:02:40;52.60;;;15.40;;
59169;SDS011;52474;52.236;5.114;2023-11-21T06:05:09;47.80;;;15.68;;
59169;SDS011;52474;52.236;5.114;2023-11-21T06:07:37;41.40;;;15.05;;
59169;SDS011;52474;52.236;5.114;2023-11-21T06:10:04;39.63;;;14.05;;
59169;SDS011;52474;52.236;5.114;2023-11-21T06:12:38;47.05;;;14.90;;
59169;SDS011;52474;52.236;5.114;2023-11-21T06:15:05;38.78;;;13.25;;
59169;SDS011;52474;52.236;5.114;2023-11-21T06:17:34;34.95;;;13.38;;
59169;SDS011;52474;52.236;5.114;2023-11-21T06:20:08;36.42;;;12.13;;
59169;SDS011;52474;52.236;5.114;2023-11-21T06:22:39;31.13;;;10.73;;
59169;SDS011;52474;52.236;5.114;2023-11-21T06:25:06;25.45;;;8.43;;
59169;SDS011;52474;52.236;5.114;2023-11-21T06:27:34;31.35;;;8.77;;
59169;SDS011;52474;52.236;5.114;2023-11-21T06:30:04;21.63;;;7.53;;
59169;SDS011;52474;52.236;5.114;2023-11-21T06:32:30;31.55;;;8.07;;
59169;SDS011;52474;52.236;5.114;2023-11-21T06:34:56;27.45;;;7.75;;
59169;SDS011;52474;52.236;5.114;2023-11-21T06:37:25;24.60;;;7.63;;
59169;SDS011;52474;52.236;5.114;2023-11-21T06:39:52;27.30;;;8.27;;
59169;SDS011;52474;52.236;5.114;2023-11-21T06:42:18;32.50;;;9.32;;
59169;SDS011;52474;52.236;5.114;2023-11-21T06:44:47;32.63;;;8.70;;
59169;SDS011;52474;52.236;5.114;2023-11-21T06:47:13;28.23;;;8.93;;
59169;SDS011;52474;52.236;5.114;2023-11-21T06:49:39;29.52;;;9.43;;
59169;SDS011;52474;52.236;5.114;2023-11-21T06:52:06;26.42;;;9.02;;
59169;SDS011;52474;52.236;5.114;2023-11-21T06:54:33;37.65;;;9.70;;
59169;SDS011;52474;52.236;5.114;2023-11-21T06:57:00;34.85;;;9.05;;
59169;SDS011;52474;52.236;5.114;2023-11-21T06:59:26;36.50;;;9.18;;
59169;SDS011;52474;52.236;5.114;2023-11-21T07:01:54;28.52;;;8.65;;
59169;SDS011;52474;52.236;5.114;2023-11-21T07:04:19;20.77;;;8.35;;
59169;SDS011;52474;52.236;5.114;2023-11-21T07:06:45;25.55;;;8.15;;
59169;SDS011;52474;52.236;5.114;2023-11-21T07:09:11;28.58;;;9.15;;
59169;SDS011;52474;52.236;5.114;2023-11-21T07:11:37;23.63;;;9.00;;
59169;SDS011;52474;52.236;5.114;2023-11-21T07:14:03;28.67;;;8.50;;
59169;SDS011;52474;52.236;5.114;2023-11-21T07:16:38;31.85;;;8.93;;
59169;SDS011;52474;52.236;5.114;2023-11-21T07:19:04;28.40;;;9.75;;
59169;SDS011;52474;52.236;5.114;2023-11-21T07:21:34;34.15;;;10.00;;
59169;SDS011;52474;52.236;5.114;2023-11-21T07:24:01;40.75;;;10.32;;
59169;SDS011;52474;52.236;5.114;2023-11-21T07:26:31;29.95;;;9.25;;
59169;SDS011;52474;52.236;5.114;2023-11-21T07:28:58;30.08;;;9.65;;
59169;SDS011;52474;52.236;5.114;2023-11-21T07:31:25;31.75;;;7.93;;
59169;SDS011;52474;52.236;5.114;2023-11-21T07:33:50;33.45;;;9.23;;
59169;SDS011;52474;52.236;5.114;2023-11-21T07:36:16;35.83;;;8.73;;
59169;SDS011;52474;52.236;5.114;2023-11-21T07:38:49;40.47;;;9.10;;
59169;SDS011;52474;52.236;5.114;2023-11-21T07:41:15;32.97;;;8.93;;
59169;SDS011;52474;52.236;5.114;2023-11-21T07:43:42;36.72;;;10.13;;
59169;SDS011;52474;52.236;5.114;2023-11-21T07:46:09;41.03;;;9.52;;
59169;SDS011;52474;52.236;5.114;2023-11-21T07:48:41;38.45;;;9.55;;
59169;SDS011;52474;52.236;5.114;2023-11-21T07:51:08;32.15;;;9.50;;
59169;SDS011;52474;52.236;5.114;2023-11-21T07:53:35;35.35;;;9.98;;
59169;SDS011;52474;52.236;5.114;2023-11-21T07:56:05;44.83;;;10.43;;
59169;SDS011;52474;52.236;5.114;2023-11-21T07:58:33;34.83;;;9.80;;
59169;SDS011;52474;52.236;5.114;2023-11-21T08:01:02;34.78;;;9.23;;
59169;SDS011;52474;52.236;5.114;2023-11-21T08:03:29;31.10;;;9.25;;
59169;SDS011;52474;52.236;5.114;2023-11-21T08:05:55;26.20;;;7.65;;
59169;SDS011;52474;52.236;5.114;2023-11-21T08:08:22;31.15;;;8.60;;
59169;SDS011;52474;52.236;5.114;2023-11-21T08:10:49;25.58;;;8.23;;
59169;SDS011;52474;52.236;5.114;2023-11-21T08:13:25;27.33;;;8.13;;
59169;SDS011;52474;52.236;5.114;2023-11-21T08:15:54;23.42;;;8.50;;
59169;SDS011;52474;52.236;5.114;2023-11-21T08:18:21;22.80;;;7.35;;
59169;SDS011;52474;52.236;5.114;2023-11-21T08:20:48;22.73;;;7.25;;
59169;SDS011;52474;52.236;5.114;2023-11-21T08:23:16;19.95;;;7.25;;
59169;SDS011;52474;52.236;5.114;2023-11-21T08:25:43;19.83;;;7.28;;
59169;SDS011;52474;52.236;5.114;2023-11-21T08:28:09;20.50;;;6.90;;
59169;SDS011;52474;52.236;5.114;2023-11-21T08:30:35;17.52;;;7.22;;
59169;SDS011;52474;52.236;5.114;2023-11-21T08:33:01;18.70;;;6.97;;
59169;SDS011;52474;52.236;5.114;2023-11-21T08:35:28;18.25;;;6.45;;
59169;SDS011;52474;52.236;5.114;2023-11-21T08:37:54;18.10;;;6.55;;
59169;SDS011;52474;52.236;5.114;2023-11-21T08:40:20;19.23;;;7.03;;
59169;SDS011;52474;52.236;5.114;2023-11-21T08:42:46;18.95;;;7.38;;
59169;SDS011;52474;52.236;5.114;2023-11-21T08:45:16;19.60;;;7.50;;
59169;SDS011;52474;52.236;5.114;2023-11-21T08:47:43;22.17;;;7.63;;
59169;SDS011;52474;52.236;5.114;2023-11-21T08:50:14;20.52;;;7.95;;
59169;SDS011;52474;52.236;5.114;2023-11-21T08:52:43;24.83;;;7.68;;
59169;SDS011;52474;52.236;5.114;2023-11-21T08:55:19;18.80;;;7.10;;
59169;SDS011;52474;52.236;5.114;2023-11-21T08:57:45;18.65;;;7.07;;
59169;SDS011;52474;52.236;5.114;2023-11-21T09:00:12;15.50;;;6.15;;
59169;SDS011;52474;52.236;5.114;2023-11-21T09:02:42;16.73;;;6.70;;
59169;SDS011;52474;52.236;5.114;2023-11-21T09:05:09;15.02;;;6.05;;
59169;SDS011;52474;52.236;5.114;2023-11-21T09:07:36;14.48;;;6.03;;
59169;SDS011;52474;52.236;5.114;2023-11-21T09:10:02;14.10;;;6.07;;
59169;SDS011;52474;52.236;5.114;2023-11-21T09:12:29;12.55;;;5.78;;
59169;SDS011;52474;52.236;5.114;2023-11-21T09:14:55;12.48;;;5.53;;
59169;SDS011;52474;52.236;5.114;2023-11-21T09:17:20;11.18;;;5.05;;
59169;SDS011;52474;52.236;5.114;2023-11-21T09:19:46;17.73;;;5.75;;
59169;SDS011;52474;52.236;5.114;2023-11-21T09:22:15;12.77;;;5.97;;
59169;SDS011;52474;52.236;5.114;2023-11-21T09:24:41;12.02;;;5.72;;
59169;SDS011;52474;52.236;5.114;2023-11-21T09:27:07;15.48;;;6.20;;
59169;SDS011;52474;52.236;5.114;2023-11-21T09:29:35;17.55;;;6.60;;
59169;SDS011;52474;52.236;5.114;2023-11-21T09:32:01;17.95;;;7.22;;
59169;SDS011;52474;52.236;5.114;2023-11-21T09:34:27;15.18;;;6.82;;
59169;SDS011;52474;52.236;5.114;2023-11-21T09:36:52;14.98;;;6.63;;
59169;SDS011;52474;52.236;5.114;2023-11-21T09:39:19;14.63;;;6.88;;
59169;SDS011;52474;52.236;5.114;2023-11-21T09:41:58;14.55;;;6.35;;
59169;SDS011;52474;52.236;5.114;2023-11-21T09:44:48;19.95;;;8.00;;
59169;SDS011;52474;52.236;5.114;2023-11-21T09:47:21;17.10;;;7.15;;
59169;SDS011;52474;52.236;5.114;2023-11-21T09:49:48;17.58;;;7.25;;
59169;SDS011;52474;52.236;5.114;2023-11-21T09:52:26;18.13;;;7.38;;
59169;SDS011;52474;52.236;5.114;2023-11-21T09:54:53;14.93;;;6.13;;
59169;SDS011;52474;52.236;5.114;2023-11-21T09:57:23;16.50;;;7.22;;
59169;SDS011;52474;52.236;5.114;2023-11-21T09:59:52;16.30;;;7.28;;
59169;SDS011;52474;52.236;5.114;2023-11-21T10:02:27;15.52;;;6.70;;
59169;SDS011;52474;52.236;5.114;2023-11-21T10:04:58;16.90;;;7.10;;
59169;SDS011;52474;52.236;5.114;2023-11-21T10:07:25;17.20;;;7.28;;
59169;SDS011;52474;52.236;5.114;2023-11-21T10:09:52;19.42;;;7.18;;
59169;SDS011;52474;52.236;5.114;2023-11-21T10:12:20;17.67;;;7.75;;
59169;SDS011;52474;52.236;5.114;2023-11-21T10:14:48;15.07;;;6.55;;
59169;SDS011;52474;52.236;5.114;2023-11-21T10:17:14;13.90;;;6.20;;
59169;SDS011;52474;52.236;5.114;2023-11-21T10:19:44;14.98;;;6.25;;
59169;SDS011;52474;52.236;5.114;2023-11-21T10:22:13;18.95;;;8.43;;
59169;SDS011;52474;52.236;5.114;2023-11-21T10:24:40;24.08;;;9.73;;
59169;SDS011;52474;52.236;5.114;2023-11-21T10:27:07;24.92;;;9.23;;
59169;SDS011;52474;52.236;5.114;2023-11-21T10:29:33;27.85;;;10.13;;
59169;SDS011;52474;52.236;5.114;2023-11-21T10:32:04;25.95;;;10.57;;
59169;SDS011;52474;52.236;5.114;2023-11-21T10:34:30;32.92;;;11.23;;
59169;SDS011;52474;52.236;5.114;2023-11-21T10:36:57;32.17;;;10.88;;
59169;SDS011;52474;52.236;5.114;2023-11-21T10:39:23;25.75;;;11.43;;
59169;SDS011;52474;52.236;5.114;2023-11-21T10:41:53;28.90;;;11.25;;
59169;SDS011;52474;52.236;5.114;2023-11-21T10:44:20;31.73;;;12.48;;
59169;SDS011;52474;52.236;5.114;2023-11-21T10:46:47;29.90;;;12.10;;
59169;SDS011;52474;52.236;5.114;2023-11-21T10:49:18;34.58;;;12.40;;
59169;SDS011;52474;52.236;5.114;2023-11-21T10:51:45;30.17;;;10.65;;
59169;SDS011;52474;52.236;5.114;2023-11-21T10:54:16;29.20;;;11.43;;
59169;SDS011;52474;52.236;5.114;2023-11-21T10:56:43;30.95;;;10.98;;
59169;SDS011;52474;52.236;5.114;2023-11-21T10:59:10;36.10;;;12.27;;
59169;SDS011;52474;52.236;5.114;2023-11-21T11:01:44;30.15;;;11.02;;
59169;SDS011;52474;52.236;5.114;2023-11-21T11:04:13;27.85;;;11.77;;
59169;SDS011;52474;52.236;5.114;2023-11-21T11:06:44;28.83;;;11.95;;
59169;SDS011;52474;52.236;5.114;2023-11-21T11:09:15;31.75;;;12.15;;
59169;SDS011;52474;52.236;5.114;2023-11-21T11:11:43;31.77;;;11.80;;
59169;SDS011;52474;52.236;5.114;2023-11-21T11:14:12;26.73;;;12.10;;
59169;SDS011;52474;52.236;5.114;2023-11-21T11:16:38;27.15;;;10.80;;
59169;SDS011;52474;52.236;5.114;2023-11-21T11:19:08;22.08;;;9.63;;
59169;SDS011;52474;52.236;5.114;2023-11-21T11:29:44;22.02;;;8.50;;
59169;SDS011;52474;52.236;5.114;2023-11-21T11:32:40;21.10;;;9.30;;
59169;SDS011;52474;52.236;5.114;2023-11-21T11:38:02;21.92;;;9.13;;
59169;SDS011;52474;52.236;5.114;2023-11-21T11:40:40;24.45;;;9.18;;
59169;SDS011;52474;52.236;5.114;2023-11-21T11:43:07;20.77;;;9.13;;
59169;SDS011;52474;52.236;5.114;2023-11-21T11:45:33;19.38;;;8.57;;
59169;SDS011;52474;52.236;5.114;2023-11-21T11:48:06;19.77;;;8.38;;
59169;SDS011;52474;52.236;5.114;2023-11-21T11:50:33;20.95;;;9.45;;
59169;SDS011;52474;52.236;5.114;2023-11-21T11:53:12;24.65;;;8.90;;
59169;SDS011;52474;52.236;5.114;2023-11-21T11:55:39;36.80;;;11.73;;
59169;SDS011;52474;52.236;5.114;2023-11-21T11:58:05;37.13;;;12.13;;
59169;SDS011;52474;52.236;5.114;2023-11-21T12:03:00;43.67;;;14.38;;
59169;SDS011;52474;52.236;5.114;2023-11-21T12:05:29;51.47;;;15.00;;
59169;SDS011;52474;52.236;5.114;2023-11-21T12:08:02;43.55;;;13.05;;
59169;SDS011;52474;52.236;5.114;2023-11-21T12:10:32;43.53;;;14.32;;
59169;SDS011;52474;52.236;5.114;2023-11-21T12:13:06;43.50;;;14.13;;
59169;SDS011;52474;52.236;5.114;2023-11-21T12:15:33;42.63;;;12.10;;
59169;SDS011;52474;52.236;5.114;2023-11-21T12:18:00;46.97;;;13.63;;
59169;SDS011;52474;52.236;5.114;2023-11-21T12:20:29;44.83;;;14.97;;
59169;SDS011;52474;52.236;5.114;2023-11-21T12:22:57;40.70;;;13.57;;
59169;SDS011;52474;52.236;5.114;2023-11-21T12:25:30;41.97;;;12.50;;
59169;SDS011;52474;52.236;5.114;2023-11-21T12:28:00;39.35;;;12.93;;
59169;SDS011;52474;52.236;5.114;2023-11-21T12:30:31;38.90;;;12.85;;
59169;SDS011;52474;52.236;5.114;2023-11-21T12:33:00;40.47;;;11.90;;
59169;SDS011;52474;52.236;5.114;2023-11-21T12:35:27;39.58;;;13.52;;
59169;SDS011;52474;52.236;5.114;2023-11-21T12:37:55;45.33;;;13.63;;
59169;SDS011;52474;52.236;5.114;2023-11-21T12:40:24;46.00;;;15.10;;
59169;SDS011;52474;52.236;5.114;2023-11-21T12:42:52;42.33;;;14.57;;
59169;SDS011;52474;52.236;5.114;2023-11-21T12:45:19;43.78;;;14.15;;
59169;SDS011;52474;52.236;5.114;2023-11-21T12:47:47;57.72;;;17.25;;
59169;SDS011;52474;52.236;5.114;2023-11-21T12:50:15;55.93;;;17.90;;
59169;SDS011;52474;52.236;5.114;2023-11-21T12:52:41;50.00;;;17.40;;
59169;SDS011;52474;52.236;5.114;2023-11-21T12:55:13;57.08;;;17.80;;
59169;SDS011;52474;52.236;5.114;2023-11-21T12:57:43;47.85;;;17.27;;
59169;SDS011;52474;52.236;5.114;2023-11-21T13:00:11;47.42;;;16.17;;
59169;SDS011;52474;52.236;5.114;2023-11-21T13:02:50;49.80;;;16.33;;
59169;SDS011;52474;52.236;5.114;2023-11-21T13:07:59;39.90;;;15.27;;
59169;SDS011;52474;52.236;5.114;2023-11-21T13:10:30;39.45;;;14.93;;
59169;SDS011;52474;52.236;5.114;2023-11-21T13:13:00;38.53;;;14.40;;
59169;SDS011;52474;52.236;5.114;2023-11-21T13:15:27;34.47;;;14.52;;
59169;SDS011;52474;52.236;5.114;2023-11-21T13:17:54;41.47;;;15.20;;
59169;SDS011;52474;52.236;5.114;2023-11-21T13:20:22;33.07;;;14.23;;
59169;SDS011;52474;52.236;5.114;2023-11-21T13:27:49;40.93;;;13.53;;
59169;SDS011;52474;52.236;5.114;2023-11-21T13:30:15;37.97;;;13.88;;
59169;SDS011;52474;52.236;5.114;2023-11-21T13:32:42;37.55;;;15.05;;
59169;SDS011;52474;52.236;5.114;2023-11-21T13:35:17;30.83;;;11.93;;
59169;SDS011;52474;52.236;5.114;2023-11-21T13:37:49;30.63;;;12.30;;
59169;SDS011;52474;52.236;5.114;2023-11-21T13:40:19;29.92;;;12.02;;
59169;SDS011;52474;52.236;5.114;2023-11-21T13:42:48;35.00;;;13.55;;
59169;SDS011;52474;52.236;5.114;2023-11-21T13:45:19;33.67;;;12.80;;
59169;SDS011;52474;52.236;5.114;2023-11-21T13:47:49;30.95;;;13.13;;
59169;SDS011;52474;52.236;5.114;2023-11-21T13:50:18;32.00;;;13.45;;
59169;SDS011;52474;52.236;5.114;2023-11-21T13:52:48;32.13;;;13.25;;
59169;SDS011;52474;52.236;5.114;2023-11-21T13:55:16;31.58;;;13.18;;
59169;SDS011;52474;52.236;5.114;2023-11-21T13:57:42;29.55;;;12.90;;
59169;SDS011;52474;52.236;5.114;2023-11-21T14:00:11;28.48;;;12.15;;
59169;SDS011;52474;52.236;5.114;2023-11-21T14:02:57;26.50;;;11.30;;
59169;SDS011;52474;52.236;5.114;2023-11-21T14:05:28;23.10;;;10.18;;
59169;SDS011;52474;52.236;5.114;2023-11-21T14:07:55;26.20;;;12.23;;
59169;SDS011;52474;52.236;5.114;2023-11-21T14:10:25;25.85;;;12.13;;
59169;SDS011;52474;52.236;5.114;2023-11-21T14:12:51;27.35;;;12.48;;
59169;SDS011;52474;52.236;5.114;2023-11-21T14:15:17;26.33;;;12.05;;
59169;SDS011;52474;52.236;5.114;2023-11-21T14:17:44;23.95;;;11.73;;
59169;SDS011;52474;52.236;5.114;2023-11-21T14:20:10;23.30;;;11.50;;
59169;SDS011;52474;52.236;5.114;2023-11-21T14:22:46;21.10;;;11.18;;
59169;SDS011;52474;52.236;5.114;2023-11-21T14:25:12;21.17;;;10.38;;
59169;SDS011;52474;52.236;5.114;2023-11-21T14:27:39;22.15;;;11.35;;
59169;SDS011;52474;52.236;5.114;2023-11-21T14:30:05;20.58;;;10.27;;
59169;SDS011;52474;52.236;5.114;2023-11-21T14:32:31;19.45;;;11.57;;
59169;SDS011;52474;52.236;5.114;2023-11-21T14:34:57;20.27;;;10.88;;
59169;SDS011;52474;52.236;5.114;2023-11-21T14:37:23;23.42;;;11.45;;
59169;SDS011;52474;52.236;5.114;2023-11-21T14:39:49;20.00;;;11.20;;
59169;SDS011;52474;52.236;5.114;2023-11-21T14:42:15;18.60;;;10.63;;
59169;SDS011;52474;52.236;5.114;2023-11-21T14:44:41;21.17;;;11.18;;
59169;SDS011;52474;52.236;5.114;2023-11-21T14:47:08;20.42;;;10.77;;
59169;SDS011;52474;52.236;5.114;2023-11-21T14:49:41;21.13;;;10.98;;
59169;SDS011;52474;52.236;5.114;2023-11-21T14:52:21;19.67;;;10.55;;